sensor_id;sensor_type;location;lat;lon;timestamp;P1;durP1;ratioP1;P2;durP2;ratioP2
16906;SDS011;8570;52.380;4.654;2022-09-29T00:00:16;6.43;;;3.53;;
16906;SDS011;8570;52.380;4.654;2022-09-29T00:05:18;4.60;;;3.07;;
16906;SDS011;8570;52.380;4.654;2022-09-29T00:10:20;5.23;;;3.43;;
16906;SDS011;8570;52.380;4.654;2022-09-29T00:15:24;5.03;;;3.90;;
16906;SDS011;8570;52.380;4.654;2022-09-29T00:20:26;4.73;;;3.60;;
16906;SDS011;8570;52.380;4.654;2022-09-29T00:25:28;3.77;;;3.17;;
16906;SDS011;8570;52.380;4.654;2022-09-29T00:30:31;5.60;;;3.90;;
16906;SDS011;8570;52.380;4.654;2022-09-29T00:35:33;5.30;;;3.90;;
16906;SDS011;8570;52.380;4.654;2022-09-29T00:40:35;3.87;;;3.37;;
16906;SDS011;8570;52.380;4.654;2022-09-29T00:45:38;4.90;;;3.60;;
16906;SDS011;8570;52.380;4.654;2022-09-29T00:50:41;5.90;;;3.60;;
16906;SDS011;8570;52.380;4.654;2022-09-29T00:55:46;7.13;;;3.57;;
16906;SDS011;8570;52.380;4.654;2022-09-29T01:00:52;5.27;;;4.03;;
16906;SDS011;8570;52.380;4.654;2022-09-29T01:05:56;8.13;;;3.73;;
16906;SDS011;8570;52.380;4.654;2022-09-29T01:11:03;5.87;;;3.90;;
16906;SDS011;8570;52.380;4.654;2022-09-29T01:16:07;4.57;;;4.07;;
16906;SDS011;8570;52.380;4.654;2022-09-29T01:21:11;6.13;;;3.87;;
16906;SDS011;8570;52.380;4.654;2022-09-29T01:32:04;4.73;;;3.67;;
16906;SDS011;8570;52.380;4.654;2022-09-29T01:37:13;4.97;;;3.90;;
16906;SDS011;8570;52.380;4.654;2022-09-29T01:42:21;5.23;;;3.70;;
16906;SDS011;8570;52.380;4.654;2022-09-29T01:47:29;4.20;;;3.70;;
16906;SDS011;8570;52.380;4.654;2022-09-29T01:52:38;6.90;;;3.87;;
16906;SDS011;8570;52.380;4.654;2022-09-29T01:57:44;4.73;;;3.53;;
16906;SDS011;8570;52.380;4.654;2022-09-29T02:02:52;3.93;;;3.53;;
16906;SDS011;8570;52.380;4.654;2022-09-29T02:08:01;4.77;;;4.27;;
16906;SDS011;8570;52.380;4.654;2022-09-29T02:13:11;4.20;;;3.80;;
16906;SDS011;8570;52.380;4.654;2022-09-29T02:18:17;4.57;;;4.10;;
16906;SDS011;8570;52.380;4.654;2022-09-29T02:23:22;4.40;;;3.80;;
16906;SDS011;8570;52.380;4.654;2022-09-29T02:28:24;5.73;;;4.27;;
16906;SDS011;8570;52.380;4.654;2022-09-29T02:33:28;5.20;;;4.20;;
16906;SDS011;8570;52.380;4.654;2022-09-29T02:38:34;5.33;;;4.50;;
16906;SDS011;8570;52.380;4.654;2022-09-29T02:43:48;5.27;;;4.77;;
16906;SDS011;8570;52.380;4.654;2022-09-29T02:49:07;5.70;;;4.53;;
16906;SDS011;8570;52.380;4.654;2022-09-29T02:54:45;5.07;;;4.50;;
16906;SDS011;8570;52.380;4.654;2022-09-29T02:59:56;4.57;;;4.07;;
16906;SDS011;8570;52.380;4.654;2022-09-29T03:05:09;5.23;;;4.73;;
16906;SDS011;8570;52.380;4.654;2022-09-29T03:10:13;5.93;;;4.50;;
16906;SDS011;8570;52.380;4.654;2022-09-29T03:15:16;5.30;;;4.33;;
16906;SDS011;8570;52.380;4.654;2022-09-29T03:20:20;5.50;;;4.60;;
16906;SDS011;8570;52.380;4.654;2022-09-29T03:25:21;4.67;;;4.17;;
16906;SDS011;8570;52.380;4.654;2022-09-29T03:30:24;6.37;;;4.77;;
16906;SDS011;8570;52.380;4.654;2022-09-29T03:35:27;4.70;;;4.30;;
16906;SDS011;8570;52.380;4.654;2022-09-29T03:40:29;6.50;;;4.80;;
16906;SDS011;8570;52.380;4.654;2022-09-29T03:45:31;9.53;;;4.70;;
16906;SDS011;8570;52.380;4.654;2022-09-29T03:50:34;7.07;;;4.37;;
16906;SDS011;8570;52.380;4.654;2022-09-29T03:55:36;5.53;;;4.93;;
16906;SDS011;8570;52.380;4.654;2022-09-29T04:00:38;5.43;;;4.40;;
16906;SDS011;8570;52.380;4.654;2022-09-29T04:05:43;5.93;;;5.33;;
16906;SDS011;8570;52.380;4.654;2022-09-29T04:10:45;5.27;;;4.77;;
16906;SDS011;8570;52.380;4.654;2022-09-29T04:15:47;5.37;;;4.87;;
16906;SDS011;8570;52.380;4.654;2022-09-29T04:20:51;6.10;;;5.10;;
16906;SDS011;8570;52.380;4.654;2022-09-29T04:25:53;5.97;;;5.20;;
16906;SDS011;8570;52.380;4.654;2022-09-29T04:30:55;6.60;;;5.27;;
16906;SDS011;8570;52.380;4.654;2022-09-29T04:35:58;7.33;;;5.10;;
16906;SDS011;8570;52.380;4.654;2022-09-29T04:41:00;6.97;;;5.57;;
16906;SDS011;8570;52.380;4.654;2022-09-29T04:46:03;9.27;;;7.07;;
16906;SDS011;8570;52.380;4.654;2022-09-29T04:51:08;7.43;;;6.27;;
16906;SDS011;8570;52.380;4.654;2022-09-29T04:56:10;10.00;;;6.37;;
16906;SDS011;8570;52.380;4.654;2022-09-29T05:01:12;9.27;;;6.47;;
16906;SDS011;8570;52.380;4.654;2022-09-29T05:06:15;8.53;;;6.30;;
16906;SDS011;8570;52.380;4.654;2022-09-29T05:11:17;9.57;;;6.43;;
16906;SDS011;8570;52.380;4.654;2022-09-29T05:16:19;8.17;;;7.03;;
16906;SDS011;8570;52.380;4.654;2022-09-29T05:21:22;12.77;;;7.33;;
16906;SDS011;8570;52.380;4.654;2022-09-29T05:26:24;43.10;;;10.63;;
16906;SDS011;8570;52.380;4.654;2022-09-29T05:31:28;91.30;;;10.60;;
16906;SDS011;8570;52.380;4.654;2022-09-29T05:36:31;30.47;;;11.97;;
16906;SDS011;8570;52.380;4.654;2022-09-29T05:41:33;9.13;;;7.87;;
16906;SDS011;8570;52.380;4.654;2022-09-29T05:46:35;39.10;;;8.63;;
16906;SDS011;8570;52.380;4.654;2022-09-29T05:51:40;61.53;;;8.30;;
16906;SDS011;8570;52.380;4.654;2022-09-29T05:56:42;54.23;;;10.20;;
16906;SDS011;8570;52.380;4.654;2022-09-29T06:01:43;41.83;;;7.53;;
16906;SDS011;8570;52.380;4.654;2022-09-29T06:06:47;30.17;;;6.93;;
16906;SDS011;8570;52.380;4.654;2022-09-29T06:11:49;30.00;;;7.63;;
16906;SDS011;8570;52.380;4.654;2022-09-29T06:16:51;34.43;;;7.93;;
16906;SDS011;8570;52.380;4.654;2022-09-29T06:21:54;36.63;;;7.87;;
16906;SDS011;8570;52.380;4.654;2022-09-29T06:26:56;18.70;;;6.27;;
16906;SDS011;8570;52.380;4.654;2022-09-29T06:31:58;42.80;;;7.57;;
16906;SDS011;8570;52.380;4.654;2022-09-29T06:37:01;125.43;;;8.70;;
16906;SDS011;8570;52.380;4.654;2022-09-29T06:42:21;70.03;;;8.00;;
16906;SDS011;8570;52.380;4.654;2022-09-29T06:47:23;63.87;;;7.97;;
16906;SDS011;8570;52.380;4.654;2022-09-29T06:52:27;37.03;;;8.20;;
16906;SDS011;8570;52.380;4.654;2022-09-29T06:57:29;12.93;;;7.57;;
16906;SDS011;8570;52.380;4.654;2022-09-29T07:02:31;11.00;;;7.80;;
16906;SDS011;8570;52.380;4.654;2022-09-29T07:07:34;10.20;;;8.70;;
16906;SDS011;8570;52.380;4.654;2022-09-29T07:12:36;42.50;;;9.73;;
16906;SDS011;8570;52.380;4.654;2022-09-29T07:17:38;90.93;;;10.17;;
16906;SDS011;8570;52.380;4.654;2022-09-29T07:22:41;61.80;;;10.10;;
16906;SDS011;8570;52.380;4.654;2022-09-29T07:27:46;48.70;;;10.33;;
16906;SDS011;8570;52.380;4.654;2022-09-29T07:32:50;61.50;;;11.40;;
16906;SDS011;8570;52.380;4.654;2022-09-29T07:37:53;32.73;;;10.70;;
16906;SDS011;8570;52.380;4.654;2022-09-29T07:42:55;43.00;;;11.57;;
16906;SDS011;8570;52.380;4.654;2022-09-29T07:48:00;13.57;;;11.83;;
16906;SDS011;8570;52.380;4.654;2022-09-29T07:53:03;17.47;;;12.77;;
16906;SDS011;8570;52.380;4.654;2022-09-29T07:58:05;35.17;;;14.07;;
16906;SDS011;8570;52.380;4.654;2022-09-29T08:03:08;24.40;;;14.03;;
16906;SDS011;8570;52.380;4.654;2022-09-29T08:08:12;28.30;;;13.93;;
16906;SDS011;8570;52.380;4.654;2022-09-29T08:13:14;35.87;;;14.00;;
16906;SDS011;8570;52.380;4.654;2022-09-29T08:18:16;43.13;;;14.53;;
16906;SDS011;8570;52.380;4.654;2022-09-29T08:23:19;44.03;;;14.17;;
16906;SDS011;8570;52.380;4.654;2022-09-29T08:28:21;28.73;;;15.47;;
16906;SDS011;8570;52.380;4.654;2022-09-29T08:33:23;23.37;;;14.57;;
16906;SDS011;8570;52.380;4.654;2022-09-29T08:38:27;36.10;;;16.50;;
16906;SDS011;8570;52.380;4.654;2022-09-29T08:43:30;41.50;;;17.93;;
16906;SDS011;8570;52.380;4.654;2022-09-29T08:48:38;54.27;;;17.03;;
16906;SDS011;8570;52.380;4.654;2022-09-29T08:53:44;46.27;;;17.87;;
16906;SDS011;8570;52.380;4.654;2022-09-29T08:58:49;19.17;;;16.50;;
16906;SDS011;8570;52.380;4.654;2022-09-29T09:03:55;22.37;;;18.47;;
16906;SDS011;8570;52.380;4.654;2022-09-29T09:09:16;28.13;;;18.63;;
16906;SDS011;8570;52.380;4.654;2022-09-29T09:14:44;29.00;;;21.80;;
16906;SDS011;8570;52.380;4.654;2022-09-29T09:20:06;24.13;;;20.23;;
16906;SDS011;8570;52.380;4.654;2022-09-29T09:25:27;28.87;;;22.03;;
16906;SDS011;8570;52.380;4.654;2022-09-29T09:30:34;33.50;;;25.10;;
16906;SDS011;8570;52.380;4.654;2022-09-29T09:35:40;30.53;;;24.57;;
16906;SDS011;8570;52.380;4.654;2022-09-29T09:40:48;29.33;;;24.27;;
16906;SDS011;8570;52.380;4.654;2022-09-29T09:45:54;26.95;;;20.90;;
16906;SDS011;8570;52.380;4.654;2022-09-29T09:51:07;24.05;;;19.85;;
16906;SDS011;8570;52.380;4.654;2022-09-29T09:56:23;19.00;;;16.73;;
16906;SDS011;8570;52.380;4.654;2022-09-29T10:01:43;16.52;;;14.80;;
16906;SDS011;8570;52.380;4.654;2022-09-29T10:06:45;17.55;;;15.13;;
16906;SDS011;8570;52.380;4.654;2022-09-29T10:11:48;18.00;;;15.60;;
16906;SDS011;8570;52.380;4.654;2022-09-29T10:16:52;16.80;;;14.63;;
16906;SDS011;8570;52.380;4.654;2022-09-29T10:21:57;10.75;;;9.65;;
16906;SDS011;8570;52.380;4.654;2022-09-29T10:27:18;11.05;;;9.57;;
16906;SDS011;8570;52.380;4.654;2022-09-29T10:32:23;14.45;;;10.63;;
16906;SDS011;8570;52.380;4.654;2022-09-29T10:37:35;8.15;;;7.35;;
16906;SDS011;8570;52.380;4.654;2022-09-29T10:42:41;11.93;;;6.88;;
16906;SDS011;8570;52.380;4.654;2022-09-29T10:47:46;6.60;;;5.05;;
16906;SDS011;8570;52.380;4.654;2022-09-29T10:52:49;6.50;;;5.18;;
16906;SDS011;8570;52.380;4.654;2022-09-29T10:57:56;4.70;;;3.20;;
16906;SDS011;8570;52.380;4.654;2022-09-29T11:03:02;3.88;;;3.40;;
16906;SDS011;8570;52.380;4.654;2022-09-29T11:08:09;3.22;;;2.72;;
16906;SDS011;8570;52.380;4.654;2022-09-29T11:18:38;3.85;;;3.55;;
16906;SDS011;8570;52.380;4.654;2022-09-29T11:23:41;3.75;;;3.15;;
16906;SDS011;8570;52.380;4.654;2022-09-29T11:34:04;6.03;;;2.72;;
16906;SDS011;8570;52.380;4.654;2022-09-29T11:39:26;2.70;;;1.30;;
16906;SDS011;8570;52.380;4.654;2022-09-29T11:50:10;1.67;;;1.55;;
16906;SDS011;8570;52.380;4.654;2022-09-29T12:00:24;2.60;;;1.95;;
16906;SDS011;8570;52.380;4.654;2022-09-29T12:05:46;2.00;;;1.70;;
16906;SDS011;8570;52.380;4.654;2022-09-29T12:10:55;2.58;;;1.50;;
16906;SDS011;8570;52.380;4.654;2022-09-29T12:16:06;1.73;;;1.40;;
16906;SDS011;8570;52.380;4.654;2022-09-29T12:21:13;2.20;;;1.67;;
16906;SDS011;8570;52.380;4.654;2022-09-29T12:26:18;1.98;;;1.13;;
16906;SDS011;8570;52.380;4.654;2022-09-29T12:31:24;2.60;;;1.45;;
16906;SDS011;8570;52.380;4.654;2022-09-29T12:41:53;2.30;;;1.65;;
16906;SDS011;8570;52.380;4.654;2022-09-29T12:47:03;2.00;;;1.48;;
16906;SDS011;8570;52.380;4.654;2022-09-29T12:52:16;3.42;;;1.40;;
16906;SDS011;8570;52.380;4.654;2022-09-29T12:57:25;2.60;;;1.70;;
16906;SDS011;8570;52.380;4.654;2022-09-29T13:02:37;2.88;;;1.52;;
16906;SDS011;8570;52.380;4.654;2022-09-29T13:07:59;2.08;;;1.23;;
16906;SDS011;8570;52.380;4.654;2022-09-29T13:13:21;1.70;;;1.13;;
16906;SDS011;8570;52.380;4.654;2022-09-29T13:18:46;1.35;;;1.17;;
16906;SDS011;8570;52.380;4.654;2022-09-29T13:24:02;2.63;;;1.20;;
16906;SDS011;8570;52.380;4.654;2022-09-29T13:29:25;3.00;;;1.00;;
16906;SDS011;8570;52.380;4.654;2022-09-29T13:34:30;3.10;;;1.30;;
16906;SDS011;8570;52.380;4.654;2022-09-29T13:39:35;2.58;;;1.25;;
16906;SDS011;8570;52.380;4.654;2022-09-29T13:44:44;3.90;;;1.27;;
16906;SDS011;8570;52.380;4.654;2022-09-29T13:50:40;3.55;;;1.83;;
16906;SDS011;8570;52.380;4.654;2022-09-29T13:55:48;3.17;;;1.33;;
16906;SDS011;8570;52.380;4.654;2022-09-29T14:00:58;6.30;;;1.67;;
16906;SDS011;8570;52.380;4.654;2022-09-29T14:06:06;3.17;;;1.30;;
16906;SDS011;8570;52.380;4.654;2022-09-29T14:11:20;5.07;;;1.30;;
16906;SDS011;8570;52.380;4.654;2022-09-29T14:16:42;5.20;;;1.33;;
16906;SDS011;8570;52.380;4.654;2022-09-29T14:21:53;1.75;;;1.35;;
16906;SDS011;8570;52.380;4.654;2022-09-29T14:32:33;2.13;;;1.30;;
16906;SDS011;8570;52.380;4.654;2022-09-29T14:37:41;5.03;;;1.33;;
16906;SDS011;8570;52.380;4.654;2022-09-29T14:43:11;6.07;;;1.98;;
16906;SDS011;8570;52.380;4.654;2022-09-29T14:48:15;3.97;;;1.50;;
16906;SDS011;8570;52.380;4.654;2022-09-29T14:53:48;1.92;;;1.40;;
16906;SDS011;8570;52.380;4.654;2022-09-29T14:59:03;1.27;;;1.17;;
16906;SDS011;8570;52.380;4.654;2022-09-29T15:04:13;4.05;;;1.25;;
16906;SDS011;8570;52.380;4.654;2022-09-29T15:09:17;3.00;;;1.30;;
16906;SDS011;8570;52.380;4.654;2022-09-29T15:14:23;2.28;;;1.10;;
16906;SDS011;8570;52.380;4.654;2022-09-29T15:19:30;2.42;;;0.90;;
16906;SDS011;8570;52.380;4.654;2022-09-29T15:24:54;2.17;;;0.95;;
16906;SDS011;8570;52.380;4.654;2022-09-29T15:30:13;1.40;;;1.05;;
16906;SDS011;8570;52.380;4.654;2022-09-29T15:35:19;3.67;;;1.52;;
16906;SDS011;8570;52.380;4.654;2022-09-29T15:40:23;2.28;;;0.93;;
16906;SDS011;8570;52.380;4.654;2022-09-29T15:45:30;2.10;;;0.90;;
16906;SDS011;8570;52.380;4.654;2022-09-29T15:50:32;1.83;;;0.90;;
16906;SDS011;8570;52.380;4.654;2022-09-29T15:55:41;3.50;;;0.85;;
16906;SDS011;8570;52.380;4.654;2022-09-29T16:00:44;2.25;;;1.00;;
16906;SDS011;8570;52.380;4.654;2022-09-29T16:05:51;1.20;;;1.00;;
16906;SDS011;8570;52.380;4.654;2022-09-29T16:10:59;2.40;;;0.88;;
16906;SDS011;8570;52.380;4.654;2022-09-29T16:16:05;1.38;;;1.00;;
16906;SDS011;8570;52.380;4.654;2022-09-29T16:21:09;1.48;;;0.88;;
16906;SDS011;8570;52.380;4.654;2022-09-29T16:26:17;4.47;;;1.25;;
16906;SDS011;8570;52.380;4.654;2022-09-29T16:31:34;1.48;;;1.05;;
16906;SDS011;8570;52.380;4.654;2022-09-29T16:36:38;2.10;;;0.93;;
16906;SDS011;8570;52.380;4.654;2022-09-29T16:41:43;2.42;;;0.95;;
16906;SDS011;8570;52.380;4.654;2022-09-29T16:46:50;3.65;;;1.17;;
16906;SDS011;8570;52.380;4.654;2022-09-29T16:51:57;1.92;;;1.00;;
16906;SDS011;8570;52.380;4.654;2022-09-29T16:57:23;3.42;;;1.30;;
16906;SDS011;8570;52.380;4.654;2022-09-29T17:02:33;3.17;;;1.00;;
16906;SDS011;8570;52.380;4.654;2022-09-29T17:07:37;1.95;;;1.10;;
16906;SDS011;8570;52.380;4.654;2022-09-29T17:12:42;2.40;;;1.17;;
16906;SDS011;8570;52.380;4.654;2022-09-29T17:17:47;2.42;;;1.00;;
16906;SDS011;8570;52.380;4.654;2022-09-29T17:22:49;2.33;;;1.10;;
16906;SDS011;8570;52.380;4.654;2022-09-29T17:27:53;2.85;;;1.38;;
16906;SDS011;8570;52.380;4.654;2022-09-29T17:33:16;3.80;;;2.10;;
16906;SDS011;8570;52.380;4.654;2022-09-29T17:38:19;3.10;;;1.85;;
16906;SDS011;8570;52.380;4.654;2022-09-29T17:43:21;1.50;;;1.15;;
16906;SDS011;8570;52.380;4.654;2022-09-29T17:48:27;2.25;;;1.42;;
16906;SDS011;8570;52.380;4.654;2022-09-29T17:53:29;2.50;;;1.60;;
16906;SDS011;8570;52.380;4.654;2022-09-29T17:58:31;2.30;;;1.50;;
16906;SDS011;8570;52.380;4.654;2022-09-29T18:03:35;9.32;;;2.03;;
16906;SDS011;8570;52.380;4.654;2022-09-29T18:08:37;3.42;;;1.90;;
16906;SDS011;8570;52.380;4.654;2022-09-29T18:13:40;5.78;;;3.17;;
16906;SDS011;8570;52.380;4.654;2022-09-29T18:18:44;3.25;;;2.50;;
16906;SDS011;8570;52.380;4.654;2022-09-29T18:23:47;3.63;;;2.40;;
16906;SDS011;8570;52.380;4.654;2022-09-29T18:28:48;3.90;;;2.60;;
16906;SDS011;8570;52.380;4.654;2022-09-29T18:33:53;4.65;;;2.65;;
16906;SDS011;8570;52.380;4.654;2022-09-29T18:38:55;3.45;;;2.25;;
16906;SDS011;8570;52.380;4.654;2022-09-29T18:43:57;3.38;;;2.40;;
16906;SDS011;8570;52.380;4.654;2022-09-29T18:49:01;4.05;;;3.05;;
16906;SDS011;8570;52.380;4.654;2022-09-29T18:54:07;5.50;;;3.67;;
16906;SDS011;8570;52.380;4.654;2022-09-29T18:59:11;5.97;;;3.50;;
16906;SDS011;8570;52.380;4.654;2022-09-29T19:04:20;5.97;;;3.83;;
16906;SDS011;8570;52.380;4.654;2022-09-29T19:09:23;8.40;;;5.65;;
16906;SDS011;8570;52.380;4.654;2022-09-29T19:14:33;10.02;;;5.82;;
16906;SDS011;8570;52.380;4.654;2022-09-29T19:19:38;9.55;;;6.78;;
16906;SDS011;8570;52.380;4.654;2022-09-29T19:24:40;9.82;;;7.25;;
16906;SDS011;8570;52.380;4.654;2022-09-29T19:29:42;10.93;;;8.02;;
16906;SDS011;8570;52.380;4.654;2022-09-29T19:34:48;11.20;;;8.13;;
16906;SDS011;8570;52.380;4.654;2022-09-29T19:39:54;13.43;;;10.13;;
16906;SDS011;8570;52.380;4.654;2022-09-29T19:44:57;11.57;;;9.25;;
16906;SDS011;8570;52.380;4.654;2022-09-29T19:50:00;12.57;;;10.25;;
16906;SDS011;8570;52.380;4.654;2022-09-29T19:55:16;12.50;;;9.38;;
16906;SDS011;8570;52.380;4.654;2022-09-29T20:00:19;16.98;;;9.95;;
16906;SDS011;8570;52.380;4.654;2022-09-29T20:05:23;13.50;;;10.00;;
16906;SDS011;8570;52.380;4.654;2022-09-29T20:10:25;15.25;;;10.50;;
16906;SDS011;8570;52.380;4.654;2022-09-29T20:15:27;11.82;;;9.02;;
16906;SDS011;8570;52.380;4.654;2022-09-29T20:20:30;11.90;;;8.52;;
16906;SDS011;8570;52.380;4.654;2022-09-29T20:25:34;9.30;;;7.88;;
16906;SDS011;8570;52.380;4.654;2022-09-29T20:30:36;9.38;;;7.60;;
16906;SDS011;8570;52.380;4.654;2022-09-29T20:35:39;14.23;;;11.00;;
16906;SDS011;8570;52.380;4.654;2022-09-29T20:40:41;13.13;;;9.85;;
16906;SDS011;8570;52.380;4.654;2022-09-29T20:45:43;13.00;;;8.98;;
16906;SDS011;8570;52.380;4.654;2022-09-29T20:50:49;11.32;;;8.73;;
16906;SDS011;8570;52.380;4.654;2022-09-29T20:55:58;15.93;;;9.07;;
16906;SDS011;8570;52.380;4.654;2022-09-29T21:01:08;13.13;;;8.63;;
16906;SDS011;8570;52.380;4.654;2022-09-29T21:06:13;11.80;;;9.43;;
16906;SDS011;8570;52.380;4.654;2022-09-29T21:11:15;13.68;;;9.75;;
16906;SDS011;8570;52.380;4.654;2022-09-29T21:16:20;13.73;;;9.65;;
16906;SDS011;8570;52.380;4.654;2022-09-29T21:21:23;16.27;;;10.20;;
16906;SDS011;8570;52.380;4.654;2022-09-29T21:26:25;13.70;;;10.18;;
16906;SDS011;8570;52.380;4.654;2022-09-29T21:31:27;15.43;;;9.82;;
16906;SDS011;8570;52.380;4.654;2022-09-29T21:36:33;15.45;;;10.52;;
16906;SDS011;8570;52.380;4.654;2022-09-29T21:41:37;14.77;;;10.05;;
16906;SDS011;8570;52.380;4.654;2022-09-29T21:46:40;13.07;;;11.07;;
16906;SDS011;8570;52.380;4.654;2022-09-29T21:51:44;15.07;;;11.80;;
16906;SDS011;8570;52.380;4.654;2022-09-29T21:56:47;18.23;;;12.80;;
16906;SDS011;8570;52.380;4.654;2022-09-29T22:01:50;16.40;;;12.18;;
16906;SDS011;8570;52.380;4.654;2022-09-29T22:06:53;16.63;;;12.20;;
16906;SDS011;8570;52.380;4.654;2022-09-29T22:11:55;16.88;;;12.48;;
16906;SDS011;8570;52.380;4.654;2022-09-29T22:16:58;16.63;;;12.05;;
16906;SDS011;8570;52.380;4.654;2022-09-29T22:22:01;17.20;;;13.00;;
16906;SDS011;8570;52.380;4.654;2022-09-29T22:27:03;17.20;;;12.30;;
16906;SDS011;8570;52.380;4.654;2022-09-29T22:32:05;16.80;;;11.25;;
16906;SDS011;8570;52.380;4.654;2022-09-29T22:37:08;15.68;;;10.60;;
16906;SDS011;8570;52.380;4.654;2022-09-29T22:42:10;16.33;;;10.38;;
16906;SDS011;8570;52.380;4.654;2022-09-29T22:47:12;16.58;;;11.00;;
16906;SDS011;8570;52.380;4.654;2022-09-29T22:52:15;15.85;;;10.80;;
16906;SDS011;8570;52.380;4.654;2022-09-29T22:57:17;18.15;;;11.18;;
16906;SDS011;8570;52.380;4.654;2022-09-29T23:02:19;15.45;;;11.02;;
16906;SDS011;8570;52.380;4.654;2022-09-29T23:07:22;14.65;;;10.98;;
16906;SDS011;8570;52.380;4.654;2022-09-29T23:12:25;17.25;;;9.88;;
16906;SDS011;8570;52.380;4.654;2022-09-29T23:17:27;13.32;;;10.57;;
16906;SDS011;8570;52.380;4.654;2022-09-29T23:22:32;13.38;;;10.60;;
16906;SDS011;8570;52.380;4.654;2022-09-29T23:27:34;15.02;;;10.75;;
16906;SDS011;8570;52.380;4.654;2022-09-29T23:32:36;15.25;;;10.80;;
16906;SDS011;8570;52.380;4.654;2022-09-29T23:37:39;14.30;;;10.30;;
16906;SDS011;8570;52.380;4.654;2022-09-29T23:42:55;14.10;;;9.75;;
16906;SDS011;8570;52.380;4.654;2022-09-29T23:48:00;9.63;;;7.68;;
16906;SDS011;8570;52.380;4.654;2022-09-29T23:53:03;9.65;;;7.88;;
16906;SDS011;8570;52.380;4.654;2022-09-29T23:58:05;11.57;;;7.93;;
